sensor_id;sensor_type;location;lat;lon;timestamp;temperature;humidity
6843;DHT22;3460;52.028;8.916;2023-07-31T00:00:11;16.10;99.90
6843;DHT22;3460;52.028;8.916;2023-07-31T00:02:38;16.20;99.90
6843;DHT22;3460;52.028;8.916;2023-07-31T00:05:06;16.30;99.90
6843;DHT22;3460;52.028;8.916;2023-07-31T00:07:34;16.20;99.90
6843;DHT22;3460;52.028;8.916;2023-07-31T00:10:00;16.20;99.90
6843;DHT22;3460;52.028;8.916;2023-07-31T00:12:28;16.20;99.90
6843;DHT22;3460;52.028;8.916;2023-07-31T00:14:54;16.20;99.90
6843;DHT22;3460;52.028;8.916;2023-07-31T00:17:21;16.10;99.90
6843;DHT22;3460;52.028;8.916;2023-07-31T00:19:48;16.20;99.90
6843;DHT22;3460;52.028;8.916;2023-07-31T00:22:16;16.10;99.90
6843;DHT22;3460;52.028;8.916;2023-07-31T00:24:44;16.10;99.90
6843;DHT22;3460;52.028;8.916;2023-07-31T00:27:11;16.00;99.90
6843;DHT22;3460;52.028;8.916;2023-07-31T00:29:37;16.00;99.90
6843;DHT22;3460;52.028;8.916;2023-07-31T00:32:05;16.00;99.90
6843;DHT22;3460;52.028;8.916;2023-07-31T00:34:32;16.00;99.90
6843;DHT22;3460;52.028;8.916;2023-07-31T00:36:59;15.90;99.90
6843;DHT22;3460;52.028;8.916;2023-07-31T00:39:26;16.00;99.90
6843;DHT22;3460;52.028;8.916;2023-07-31T00:41:54;15.90;99.90
6843;DHT22;3460;52.028;8.916;2023-07-31T00:44:21;15.90;99.90
6843;DHT22;3460;52.028;8.916;2023-07-31T00:46:47;15.90;99.90
6843;DHT22;3460;52.028;8.916;2023-07-31T00:49:14;15.90;99.90
6843;DHT22;3460;52.028;8.916;2023-07-31T00:51:42;16.00;99.90
6843;DHT22;3460;52.028;8.916;2023-07-31T00:54:09;15.90;99.90
6843;DHT22;3460;52.028;8.916;2023-07-31T00:56:38;16.00;99.90
6843;DHT22;3460;52.028;8.916;2023-07-31T00:59:06;15.90;99.90
6843;DHT22;3460;52.028;8.916;2023-07-31T01:01:33;15.90;99.90
6843;DHT22;3460;52.028;8.916;2023-07-31T01:04:00;16.00;99.90
6843;DHT22;3460;52.028;8.916;2023-07-31T01:06:30;16.00;99.90
6843;DHT22;3460;52.028;8.916;2023-07-31T01:09:02;16.00;99.90
6843;DHT22;3460;52.028;8.916;2023-07-31T01:11:31;15.90;99.90
6843;DHT22;3460;52.028;8.916;2023-07-31T01:13:59;16.00;99.90
6843;DHT22;3460;52.028;8.916;2023-07-31T01:16:28;15.90;99.90
6843;DHT22;3460;52.028;8.916;2023-07-31T01:18:55;16.00;99.90
6843;DHT22;3460;52.028;8.916;2023-07-31T01:21:44;16.00;99.90
6843;DHT22;3460;52.028;8.916;2023-07-31T01:24:23;16.00;99.90
6843;DHT22;3460;52.028;8.916;2023-07-31T01:26:59;16.00;99.90
6843;DHT22;3460;52.028;8.916;2023-07-31T01:29:36;16.00;99.90
6843;DHT22;3460;52.028;8.916;2023-07-31T01:32:06;16.00;99.90
6843;DHT22;3460;52.028;8.916;2023-07-31T01:34:35;16.00;99.90
6843;DHT22;3460;52.028;8.916;2023-07-31T01:37:03;16.00;99.90
6843;DHT22;3460;52.028;8.916;2023-07-31T01:39:30;16.00;99.90
6843;DHT22;3460;52.028;8.916;2023-07-31T01:41:58;16.10;99.90
6843;DHT22;3460;52.028;8.916;2023-07-31T01:44:25;16.00;99.90
6843;DHT22;3460;52.028;8.916;2023-07-31T01:46:52;16.10;99.90
6843;DHT22;3460;52.028;8.916;2023-07-31T01:49:19;16.00;99.90
6843;DHT22;3460;52.028;8.916;2023-07-31T01:51:45;16.00;99.90
6843;DHT22;3460;52.028;8.916;2023-07-31T01:54:12;16.00;99.90
6843;DHT22;3460;52.028;8.916;2023-07-31T01:56:39;15.90;99.90
6843;DHT22;3460;52.028;8.916;2023-07-31T01:59:07;15.90;99.90
6843;DHT22;3460;52.028;8.916;2023-07-31T02:01:34;15.80;99.90
6843;DHT22;3460;52.028;8.916;2023-07-31T02:04:01;15.80;99.90
6843;DHT22;3460;52.028;8.916;2023-07-31T02:06:28;15.80;99.90
6843;DHT22;3460;52.028;8.916;2023-07-31T02:08:55;15.80;99.90
6843;DHT22;3460;52.028;8.916;2023-07-31T02:11:22;15.80;99.90
6843;DHT22;3460;52.028;8.916;2023-07-31T02:13:49;15.70;99.90
6843;DHT22;3460;52.028;8.916;2023-07-31T02:16:17;15.70;99.90
6843;DHT22;3460;52.028;8.916;2023-07-31T02:18:43;15.70;99.90
6843;DHT22;3460;52.028;8.916;2023-07-31T02:21:10;15.60;99.90
6843;DHT22;3460;52.028;8.916;2023-07-31T02:23:37;15.50;99.90
6843;DHT22;3460;52.028;8.916;2023-07-31T02:26:04;15.50;99.90
6843;DHT22;3460;52.028;8.916;2023-07-31T02:28:31;15.50;99.90
6843;DHT22;3460;52.028;8.916;2023-07-31T02:30:57;15.40;99.90
6843;DHT22;3460;52.028;8.916;2023-07-31T02:33:25;15.50;99.90
6843;DHT22;3460;52.028;8.916;2023-07-31T02:35:52;15.40;99.90
6843;DHT22;3460;52.028;8.916;2023-07-31T02:38:19;15.40;99.90
6843;DHT22;3460;52.028;8.916;2023-07-31T02:40:46;15.30;99.90
6843;DHT22;3460;52.028;8.916;2023-07-31T02:43:13;15.30;99.90
6843;DHT22;3460;52.028;8.916;2023-07-31T02:45:40;15.20;99.90
6843;DHT22;3460;52.028;8.916;2023-07-31T02:48:07;15.10;99.90
6843;DHT22;3460;52.028;8.916;2023-07-31T02:50:35;15.10;99.90
6843;DHT22;3460;52.028;8.916;2023-07-31T02:53:02;15.00;99.90
6843;DHT22;3460;52.028;8.916;2023-07-31T02:55:28;15.00;99.90
6843;DHT22;3460;52.028;8.916;2023-07-31T02:57:55;15.00;99.90
6843;DHT22;3460;52.028;8.916;2023-07-31T03:00:23;15.00;99.90
6843;DHT22;3460;52.028;8.916;2023-07-31T03:02:50;14.90;99.90
6843;DHT22;3460;52.028;8.916;2023-07-31T03:05:17;14.90;99.90
6843;DHT22;3460;52.028;8.916;2023-07-31T03:07:45;14.90;99.90
6843;DHT22;3460;52.028;8.916;2023-07-31T03:10:12;14.90;99.90
6843;DHT22;3460;52.028;8.916;2023-07-31T03:12:39;14.90;99.90
6843;DHT22;3460;52.028;8.916;2023-07-31T03:15:07;14.80;99.90
6843;DHT22;3460;52.028;8.916;2023-07-31T03:17:34;14.80;99.90
6843;DHT22;3460;52.028;8.916;2023-07-31T03:20:01;14.80;99.90
6843;DHT22;3460;52.028;8.916;2023-07-31T03:22:28;14.70;99.90
6843;DHT22;3460;52.028;8.916;2023-07-31T03:24:56;14.70;99.90
6843;DHT22;3460;52.028;8.916;2023-07-31T03:27:23;14.70;99.90
6843;DHT22;3460;52.028;8.916;2023-07-31T03:29:49;14.70;99.90
6843;DHT22;3460;52.028;8.916;2023-07-31T03:32:17;14.70;99.90
6843;DHT22;3460;52.028;8.916;2023-07-31T03:34:44;14.80;99.90
6843;DHT22;3460;52.028;8.916;2023-07-31T03:37:10;14.70;99.90
6843;DHT22;3460;52.028;8.916;2023-07-31T03:39:37;14.80;99.90
6843;DHT22;3460;52.028;8.916;2023-07-31T03:42:06;14.90;99.90
6843;DHT22;3460;52.028;8.916;2023-07-31T03:44:33;14.90;99.90
6843;DHT22;3460;52.028;8.916;2023-07-31T03:47:00;14.80;99.90
6843;DHT22;3460;52.028;8.916;2023-07-31T03:49:26;14.90;99.90
6843;DHT22;3460;52.028;8.916;2023-07-31T03:51:53;14.90;99.90
6843;DHT22;3460;52.028;8.916;2023-07-31T03:54:20;15.00;99.90
6843;DHT22;3460;52.028;8.916;2023-07-31T03:56:47;15.10;99.90
6843;DHT22;3460;52.028;8.916;2023-07-31T03:59:15;15.20;99.90
6843;DHT22;3460;52.028;8.916;2023-07-31T04:01:42;15.30;99.90
6843;DHT22;3460;52.028;8.916;2023-07-31T04:04:09;15.30;99.90
6843;DHT22;3460;52.028;8.916;2023-07-31T04:06:36;15.30;99.90
6843;DHT22;3460;52.028;8.916;2023-07-31T04:09:03;15.40;99.90
6843;DHT22;3460;52.028;8.916;2023-07-31T04:11:29;15.40;99.90
6843;DHT22;3460;52.028;8.916;2023-07-31T04:13:56;15.40;99.90
6843;DHT22;3460;52.028;8.916;2023-07-31T04:16:24;15.50;99.90
6843;DHT22;3460;52.028;8.916;2023-07-31T04:18:51;15.50;99.90
6843;DHT22;3460;52.028;8.916;2023-07-31T04:21:18;15.60;99.90
6843;DHT22;3460;52.028;8.916;2023-07-31T04:23:45;15.60;99.90
6843;DHT22;3460;52.028;8.916;2023-07-31T04:26:12;15.60;99.90
6843;DHT22;3460;52.028;8.916;2023-07-31T04:28:38;15.60;99.90
6843;DHT22;3460;52.028;8.916;2023-07-31T04:31:05;15.70;99.90
6843;DHT22;3460;52.028;8.916;2023-07-31T04:33:34;15.60;99.90
6843;DHT22;3460;52.028;8.916;2023-07-31T04:36:00;15.70;99.90
6843;DHT22;3460;52.028;8.916;2023-07-31T04:38:27;15.70;99.90
6843;DHT22;3460;52.028;8.916;2023-07-31T04:40:54;15.70;99.90
6843;DHT22;3460;52.028;8.916;2023-07-31T04:43:21;15.70;99.90
6843;DHT22;3460;52.028;8.916;2023-07-31T04:45:48;15.70;99.90
6843;DHT22;3460;52.028;8.916;2023-07-31T04:48:15;15.70;99.90
6843;DHT22;3460;52.028;8.916;2023-07-31T04:50:44;15.70;99.90
6843;DHT22;3460;52.028;8.916;2023-07-31T04:53:10;15.70;99.90
6843;DHT22;3460;52.028;8.916;2023-07-31T04:55:37;15.80;99.90
6843;DHT22;3460;52.028;8.916;2023-07-31T04:58:04;15.70;99.90
6843;DHT22;3460;52.028;8.916;2023-07-31T05:00:31;15.80;99.90
6843;DHT22;3460;52.028;8.916;2023-07-31T05:02:58;15.70;99.90
6843;DHT22;3460;52.028;8.916;2023-07-31T05:05:25;15.70;99.90
6843;DHT22;3460;52.028;8.916;2023-07-31T05:07:53;15.70;99.90
6843;DHT22;3460;52.028;8.916;2023-07-31T05:10:20;15.70;99.90
6843;DHT22;3460;52.028;8.916;2023-07-31T05:12:47;15.70;99.90
6843;DHT22;3460;52.028;8.916;2023-07-31T05:15:13;15.70;99.90
6843;DHT22;3460;52.028;8.916;2023-07-31T05:17:40;15.70;99.90
6843;DHT22;3460;52.028;8.916;2023-07-31T05:20:08;15.70;99.90
6843;DHT22;3460;52.028;8.916;2023-07-31T05:22:35;15.70;99.90
6843;DHT22;3460;52.028;8.916;2023-07-31T05:25:03;15.70;99.90
6843;DHT22;3460;52.028;8.916;2023-07-31T05:27:31;15.70;99.90
6843;DHT22;3460;52.028;8.916;2023-07-31T05:29:58;15.70;99.90
6843;DHT22;3460;52.028;8.916;2023-07-31T05:32:24;15.70;99.90
6843;DHT22;3460;52.028;8.916;2023-07-31T05:34:51;15.80;99.90
6843;DHT22;3460;52.028;8.916;2023-07-31T05:37:19;15.80;99.90
6843;DHT22;3460;52.028;8.916;2023-07-31T05:39:46;15.70;99.90
6843;DHT22;3460;52.028;8.916;2023-07-31T05:42:14;15.70;99.90
6843;DHT22;3460;52.028;8.916;2023-07-31T05:44:41;15.80;99.90
6843;DHT22;3460;52.028;8.916;2023-07-31T05:47:08;15.80;99.90
6843;DHT22;3460;52.028;8.916;2023-07-31T05:49:34;15.80;99.90
6843;DHT22;3460;52.028;8.916;2023-07-31T05:52:01;15.80;99.90
6843;DHT22;3460;52.028;8.916;2023-07-31T05:54:28;15.80;99.90
6843;DHT22;3460;52.028;8.916;2023-07-31T05:56:55;15.80;99.90
6843;DHT22;3460;52.028;8.916;2023-07-31T05:59:23;15.80;99.90
6843;DHT22;3460;52.028;8.916;2023-07-31T06:01:50;15.80;99.90
6843;DHT22;3460;52.028;8.916;2023-07-31T06:04:17;15.90;99.90
6843;DHT22;3460;52.028;8.916;2023-07-31T06:06:43;15.90;99.90
6843;DHT22;3460;52.028;8.916;2023-07-31T06:09:10;16.00;99.90
6843;DHT22;3460;52.028;8.916;2023-07-31T06:11:37;16.00;99.90
6843;DHT22;3460;52.028;8.916;2023-07-31T06:14:04;16.00;99.90
6843;DHT22;3460;52.028;8.916;2023-07-31T06:16:32;16.00;99.90
6843;DHT22;3460;52.028;8.916;2023-07-31T06:18:59;16.00;99.90
6843;DHT22;3460;52.028;8.916;2023-07-31T06:21:26;16.00;99.90
6843;DHT22;3460;52.028;8.916;2023-07-31T06:23:52;16.00;99.90
6843;DHT22;3460;52.028;8.916;2023-07-31T06:26:19;16.00;99.90
6843;DHT22;3460;52.028;8.916;2023-07-31T06:28:46;16.00;99.90
6843;DHT22;3460;52.028;8.916;2023-07-31T06:31:13;16.00;99.90
6843;DHT22;3460;52.028;8.916;2023-07-31T06:33:41;16.00;99.90
6843;DHT22;3460;52.028;8.916;2023-07-31T06:36:08;16.00;99.90
6843;DHT22;3460;52.028;8.916;2023-07-31T06:38:35;16.10;99.90
6843;DHT22;3460;52.028;8.916;2023-07-31T06:41:03;16.10;99.90
6843;DHT22;3460;52.028;8.916;2023-07-31T06:43:30;16.10;99.90
6843;DHT22;3460;52.028;8.916;2023-07-31T06:45:57;16.10;99.90
6843;DHT22;3460;52.028;8.916;2023-07-31T06:48:24;16.10;99.90
6843;DHT22;3460;52.028;8.916;2023-07-31T06:50:52;16.10;99.90
6843;DHT22;3460;52.028;8.916;2023-07-31T06:53:19;16.20;99.90
6843;DHT22;3460;52.028;8.916;2023-07-31T06:55:45;16.20;99.90
6843;DHT22;3460;52.028;8.916;2023-07-31T06:58:13;16.20;99.90
6843;DHT22;3460;52.028;8.916;2023-07-31T07:00:40;16.30;99.90
6843;DHT22;3460;52.028;8.916;2023-07-31T07:03:07;16.30;99.90
6843;DHT22;3460;52.028;8.916;2023-07-31T07:05:34;16.20;99.90
6843;DHT22;3460;52.028;8.916;2023-07-31T07:08:02;16.20;99.90
6843;DHT22;3460;52.028;8.916;2023-07-31T07:10:29;16.20;99.90
6843;DHT22;3460;52.028;8.916;2023-07-31T07:12:55;16.20;99.90
6843;DHT22;3460;52.028;8.916;2023-07-31T07:15:22;16.20;99.90
6843;DHT22;3460;52.028;8.916;2023-07-31T07:17:49;16.20;99.90
6843;DHT22;3460;52.028;8.916;2023-07-31T07:20:16;16.30;99.90
6843;DHT22;3460;52.028;8.916;2023-07-31T07:22:44;16.30;99.90
6843;DHT22;3460;52.028;8.916;2023-07-31T07:25:12;16.30;99.90
6843;DHT22;3460;52.028;8.916;2023-07-31T07:27:39;16.30;99.90
6843;DHT22;3460;52.028;8.916;2023-07-31T07:30:07;16.30;99.90
6843;DHT22;3460;52.028;8.916;2023-07-31T07:32:34;16.30;99.90
6843;DHT22;3460;52.028;8.916;2023-07-31T07:35:01;16.30;99.90
6843;DHT22;3460;52.028;8.916;2023-07-31T07:37:27;16.30;99.90
6843;DHT22;3460;52.028;8.916;2023-07-31T07:39:54;16.30;99.90
6843;DHT22;3460;52.028;8.916;2023-07-31T07:42:23;16.30;99.90
6843;DHT22;3460;52.028;8.916;2023-07-31T07:44:49;16.30;99.90
6843;DHT22;3460;52.028;8.916;2023-07-31T07:47:16;16.30;99.90
6843;DHT22;3460;52.028;8.916;2023-07-31T07:49:43;16.40;99.90
6843;DHT22;3460;52.028;8.916;2023-07-31T07:52:10;16.40;99.90
6843;DHT22;3460;52.028;8.916;2023-07-31T07:54:37;16.40;99.90
6843;DHT22;3460;52.028;8.916;2023-07-31T07:57:04;16.40;99.90
6843;DHT22;3460;52.028;8.916;2023-07-31T07:59:32;16.40;99.90
6843;DHT22;3460;52.028;8.916;2023-07-31T08:01:59;16.50;99.90
6843;DHT22;3460;52.028;8.916;2023-07-31T08:04:26;16.50;99.90
6843;DHT22;3460;52.028;8.916;2023-07-31T08:06:52;16.50;99.90
6843;DHT22;3460;52.028;8.916;2023-07-31T08:09:19;16.40;99.90
6843;DHT22;3460;52.028;8.916;2023-07-31T08:11:46;16.40;99.90
6843;DHT22;3460;52.028;8.916;2023-07-31T08:14:13;16.30;99.90
6843;DHT22;3460;52.028;8.916;2023-07-31T08:16:41;16.30;99.90
6843;DHT22;3460;52.028;8.916;2023-07-31T08:19:08;16.30;99.90
6843;DHT22;3460;52.028;8.916;2023-07-31T08:21:35;16.30;99.90
6843;DHT22;3460;52.028;8.916;2023-07-31T08:24:02;16.30;99.90
6843;DHT22;3460;52.028;8.916;2023-07-31T08:26:29;16.30;99.90
6843;DHT22;3460;52.028;8.916;2023-07-31T08:28:55;16.30;99.90
6843;DHT22;3460;52.028;8.916;2023-07-31T08:31:23;16.20;99.90
6843;DHT22;3460;52.028;8.916;2023-07-31T08:33:51;16.20;99.90
6843;DHT22;3460;52.028;8.916;2023-07-31T08:36:17;16.20;99.90
6843;DHT22;3460;52.028;8.916;2023-07-31T08:38:45;16.30;99.90
6843;DHT22;3460;52.028;8.916;2023-07-31T08:41:12;16.30;99.90
6843;DHT22;3460;52.028;8.916;2023-07-31T08:43:39;16.30;99.90
6843;DHT22;3460;52.028;8.916;2023-07-31T08:46:07;16.30;99.90
6843;DHT22;3460;52.028;8.916;2023-07-31T08:48:35;16.40;99.90
6843;DHT22;3460;52.028;8.916;2023-07-31T08:51:04;16.40;99.90
6843;DHT22;3460;52.028;8.916;2023-07-31T08:53:32;16.50;99.90
6843;DHT22;3460;52.028;8.916;2023-07-31T08:55:59;16.60;99.90
6843;DHT22;3460;52.028;8.916;2023-07-31T08:58:28;16.70;99.90
6843;DHT22;3460;52.028;8.916;2023-07-31T09:00:57;16.70;99.90
6843;DHT22;3460;52.028;8.916;2023-07-31T09:03:25;16.90;99.90
6843;DHT22;3460;52.028;8.916;2023-07-31T09:05:53;16.90;99.90
6843;DHT22;3460;52.028;8.916;2023-07-31T09:08:23;17.00;99.90
6843;DHT22;3460;52.028;8.916;2023-07-31T09:10:50;17.10;99.90
6843;DHT22;3460;52.028;8.916;2023-07-31T09:13:17;17.20;99.90
6843;DHT22;3460;52.028;8.916;2023-07-31T09:15:45;17.30;99.90
6843;DHT22;3460;52.028;8.916;2023-07-31T09:18:12;17.50;99.90
6843;DHT22;3460;52.028;8.916;2023-07-31T09:20:42;17.60;99.90
6843;DHT22;3460;52.028;8.916;2023-07-31T09:23:11;17.50;99.90
6843;DHT22;3460;52.028;8.916;2023-07-31T09:25:40;17.50;99.90
6843;DHT22;3460;52.028;8.916;2023-07-31T09:28:07;17.40;99.90
6843;DHT22;3460;52.028;8.916;2023-07-31T09:30:46;17.40;99.90
6843;DHT22;3460;52.028;8.916;2023-07-31T09:33:13;17.30;99.90
6843;DHT22;3460;52.028;8.916;2023-07-31T09:35:41;17.30;99.90
6843;DHT22;3460;52.028;8.916;2023-07-31T09:38:18;17.30;99.90
6843;DHT22;3460;52.028;8.916;2023-07-31T09:40:47;17.40;99.90
6843;DHT22;3460;52.028;8.916;2023-07-31T09:43:38;17.40;99.90
6843;DHT22;3460;52.028;8.916;2023-07-31T09:46:13;17.50;99.90
6843;DHT22;3460;52.028;8.916;2023-07-31T09:48:40;17.50;99.90
6843;DHT22;3460;52.028;8.916;2023-07-31T09:51:07;17.50;99.90
6843;DHT22;3460;52.028;8.916;2023-07-31T09:53:33;17.50;99.90
6843;DHT22;3460;52.028;8.916;2023-07-31T09:56:02;17.60;99.90
6843;DHT22;3460;52.028;8.916;2023-07-31T09:58:30;17.50;99.90
6843;DHT22;3460;52.028;8.916;2023-07-31T10:01:02;17.60;99.90
6843;DHT22;3460;52.028;8.916;2023-07-31T10:03:29;17.60;99.90
6843;DHT22;3460;52.028;8.916;2023-07-31T10:05:59;17.60;99.90
6843;DHT22;3460;52.028;8.916;2023-07-31T10:08:27;17.70;99.90
6843;DHT22;3460;52.028;8.916;2023-07-31T10:10:58;17.70;99.90
6843;DHT22;3460;52.028;8.916;2023-07-31T10:13:28;17.70;99.90
6843;DHT22;3460;52.028;8.916;2023-07-31T10:15:59;17.70;99.90
6843;DHT22;3460;52.028;8.916;2023-07-31T10:18:26;17.80;99.90
6843;DHT22;3460;52.028;8.916;2023-07-31T10:20:54;17.90;99.90
6843;DHT22;3460;52.028;8.916;2023-07-31T10:23:22;17.80;99.90
6843;DHT22;3460;52.028;8.916;2023-07-31T10:25:50;17.90;99.90
6843;DHT22;3460;52.028;8.916;2023-07-31T10:28:18;17.90;99.90
6843;DHT22;3460;52.028;8.916;2023-07-31T10:30:46;17.90;99.90
6843;DHT22;3460;52.028;8.916;2023-07-31T10:33:14;17.90;99.90
6843;DHT22;3460;52.028;8.916;2023-07-31T10:35:41;17.90;99.90
6843;DHT22;3460;52.028;8.916;2023-07-31T10:38:12;18.00;99.90
6843;DHT22;3460;52.028;8.916;2023-07-31T10:40:39;18.00;99.90
6843;DHT22;3460;52.028;8.916;2023-07-31T10:43:06;18.00;99.90
6843;DHT22;3460;52.028;8.916;2023-07-31T10:45:35;18.00;99.90
6843;DHT22;3460;52.028;8.916;2023-07-31T10:48:05;17.90;99.90
6843;DHT22;3460;52.028;8.916;2023-07-31T10:50:32;17.90;99.90
6843;DHT22;3460;52.028;8.916;2023-07-31T10:52:59;18.00;99.90
6843;DHT22;3460;52.028;8.916;2023-07-31T10:55:29;17.90;99.90
6843;DHT22;3460;52.028;8.916;2023-07-31T10:57:58;17.90;99.90
6843;DHT22;3460;52.028;8.916;2023-07-31T11:00:31;17.90;99.90
6843;DHT22;3460;52.028;8.916;2023-07-31T11:02:59;17.90;99.90
6843;DHT22;3460;52.028;8.916;2023-07-31T11:06:01;17.90;99.90
6843;DHT22;3460;52.028;8.916;2023-07-31T11:08:30;17.90;99.90
6843;DHT22;3460;52.028;8.916;2023-07-31T11:11:07;17.90;99.90
6843;DHT22;3460;52.028;8.916;2023-07-31T11:13:40;17.90;99.90
6843;DHT22;3460;52.028;8.916;2023-07-31T11:16:08;17.90;99.90
6843;DHT22;3460;52.028;8.916;2023-07-31T11:18:35;17.90;99.90
6843;DHT22;3460;52.028;8.916;2023-07-31T11:21:03;17.90;99.90
6843;DHT22;3460;52.028;8.916;2023-07-31T11:23:30;17.80;99.90
6843;DHT22;3460;52.028;8.916;2023-07-31T11:25:59;17.80;99.90
6843;DHT22;3460;52.028;8.916;2023-07-31T11:28:31;17.70;99.90
6843;DHT22;3460;52.028;8.916;2023-07-31T11:30:59;17.70;99.90
6843;DHT22;3460;52.028;8.916;2023-07-31T11:33:26;17.70;99.90
6843;DHT22;3460;52.028;8.916;2023-07-31T11:35:53;17.70;99.90
6843;DHT22;3460;52.028;8.916;2023-07-31T11:38:25;17.60;99.90
6843;DHT22;3460;52.028;8.916;2023-07-31T11:40:52;17.60;99.90
6843;DHT22;3460;52.028;8.916;2023-07-31T11:43:20;17.50;99.90
6843;DHT22;3460;52.028;8.916;2023-07-31T11:45:48;17.50;99.90
6843;DHT22;3460;52.028;8.916;2023-07-31T11:48:20;17.60;99.90
6843;DHT22;3460;52.028;8.916;2023-07-31T11:50:48;17.60;99.90
6843;DHT22;3460;52.028;8.916;2023-07-31T11:53:18;17.70;99.90
6843;DHT22;3460;52.028;8.916;2023-07-31T11:55:47;17.60;99.90
6843;DHT22;3460;52.028;8.916;2023-07-31T11:58:16;17.60;99.90
6843;DHT22;3460;52.028;8.916;2023-07-31T12:00:44;17.60;99.90
6843;DHT22;3460;52.028;8.916;2023-07-31T12:03:12;17.60;99.90
6843;DHT22;3460;52.028;8.916;2023-07-31T12:05:39;17.60;99.90
6843;DHT22;3460;52.028;8.916;2023-07-31T12:08:09;17.70;99.90
6843;DHT22;3460;52.028;8.916;2023-07-31T12:10:37;17.70;99.90
6843;DHT22;3460;52.028;8.916;2023-07-31T12:13:08;17.70;99.90
6843;DHT22;3460;52.028;8.916;2023-07-31T12:15:40;17.80;99.90
6843;DHT22;3460;52.028;8.916;2023-07-31T12:18:08;17.80;99.90
6843;DHT22;3460;52.028;8.916;2023-07-31T12:20:40;17.70;99.90
6843;DHT22;3460;52.028;8.916;2023-07-31T12:23:07;17.70;99.90
6843;DHT22;3460;52.028;8.916;2023-07-31T12:25:39;17.70;99.90
6843;DHT22;3460;52.028;8.916;2023-07-31T12:28:08;17.80;99.90
6843;DHT22;3460;52.028;8.916;2023-07-31T12:30:38;17.80;99.90
6843;DHT22;3460;52.028;8.916;2023-07-31T12:33:06;17.80;99.90
6843;DHT22;3460;52.028;8.916;2023-07-31T12:35:37;17.80;99.90
6843;DHT22;3460;52.028;8.916;2023-07-31T12:38:04;17.80;99.90
6843;DHT22;3460;52.028;8.916;2023-07-31T12:40:31;17.80;99.90
6843;DHT22;3460;52.028;8.916;2023-07-31T12:43:00;17.90;99.90
6843;DHT22;3460;52.028;8.916;2023-07-31T12:45:28;17.90;99.90
6843;DHT22;3460;52.028;8.916;2023-07-31T12:47:55;17.90;99.90
6843;DHT22;3460;52.028;8.916;2023-07-31T12:50:22;17.90;99.90
6843;DHT22;3460;52.028;8.916;2023-07-31T12:52:49;17.90;99.90
6843;DHT22;3460;52.028;8.916;2023-07-31T12:55:16;17.90;99.90
6843;DHT22;3460;52.028;8.916;2023-07-31T12:57:43;18.00;99.90
6843;DHT22;3460;52.028;8.916;2023-07-31T13:00:12;18.00;99.90
6843;DHT22;3460;52.028;8.916;2023-07-31T13:02:40;18.00;99.90
6843;DHT22;3460;52.028;8.916;2023-07-31T13:05:07;18.00;99.90
6843;DHT22;3460;52.028;8.916;2023-07-31T13:07:34;18.00;99.90
6843;DHT22;3460;52.028;8.916;2023-07-31T13:10:01;18.00;99.90
6843;DHT22;3460;52.028;8.916;2023-07-31T13:12:28;18.00;99.90
6843;DHT22;3460;52.028;8.916;2023-07-31T13:14:55;18.00;99.90
6843;DHT22;3460;52.028;8.916;2023-07-31T13:17:22;17.90;99.90
6843;DHT22;3460;52.028;8.916;2023-07-31T13:19:50;17.80;99.90
6843;DHT22;3460;52.028;8.916;2023-07-31T13:22:17;17.80;99.90
6843;DHT22;3460;52.028;8.916;2023-07-31T13:24:43;17.80;99.90
6843;DHT22;3460;52.028;8.916;2023-07-31T13:27:10;17.70;99.90
6843;DHT22;3460;52.028;8.916;2023-07-31T13:29:37;17.60;99.90
6843;DHT22;3460;52.028;8.916;2023-07-31T13:32:04;17.60;99.90
6843;DHT22;3460;52.028;8.916;2023-07-31T13:34:31;17.60;99.90
6843;DHT22;3460;52.028;8.916;2023-07-31T13:36:59;17.70;99.90
6843;DHT22;3460;52.028;8.916;2023-07-31T13:39:26;17.80;99.90
6843;DHT22;3460;52.028;8.916;2023-07-31T13:41:53;18.00;99.90
6843;DHT22;3460;52.028;8.916;2023-07-31T13:44:20;18.10;99.90
6843;DHT22;3460;52.028;8.916;2023-07-31T13:46:47;18.30;99.90
6843;DHT22;3460;52.028;8.916;2023-07-31T13:49:14;18.40;99.90
6843;DHT22;3460;52.028;8.916;2023-07-31T13:51:41;18.50;99.90
6843;DHT22;3460;52.028;8.916;2023-07-31T13:54:09;18.60;99.90
6843;DHT22;3460;52.028;8.916;2023-07-31T13:56:37;18.70;99.90
6843;DHT22;3460;52.028;8.916;2023-07-31T13:59:04;19.00;99.90
6843;DHT22;3460;52.028;8.916;2023-07-31T14:01:31;19.20;99.90
6843;DHT22;3460;52.028;8.916;2023-07-31T14:03:58;19.40;99.90
6843;DHT22;3460;52.028;8.916;2023-07-31T14:06:24;19.50;99.90
6843;DHT22;3460;52.028;8.916;2023-07-31T14:08:51;19.60;99.90
6843;DHT22;3460;52.028;8.916;2023-07-31T14:11:19;19.50;99.90
6843;DHT22;3460;52.028;8.916;2023-07-31T14:13:46;19.50;99.90
6843;DHT22;3460;52.028;8.916;2023-07-31T14:16:13;19.50;99.90
6843;DHT22;3460;52.028;8.916;2023-07-31T14:18:40;19.40;99.90
6843;DHT22;3460;52.028;8.916;2023-07-31T14:21:07;19.40;99.90
6843;DHT22;3460;52.028;8.916;2023-07-31T14:23:34;19.30;99.90
6843;DHT22;3460;52.028;8.916;2023-07-31T14:26:00;19.30;99.90
6843;DHT22;3460;52.028;8.916;2023-07-31T14:28:28;19.30;99.90
6843;DHT22;3460;52.028;8.916;2023-07-31T14:30:55;19.20;99.90
6843;DHT22;3460;52.028;8.916;2023-07-31T14:33:22;19.20;99.90
6843;DHT22;3460;52.028;8.916;2023-07-31T14:35:49;19.30;99.90
6843;DHT22;3460;52.028;8.916;2023-07-31T14:38:16;19.20;99.90
6843;DHT22;3460;52.028;8.916;2023-07-31T14:40:43;19.20;99.90
6843;DHT22;3460;52.028;8.916;2023-07-31T14:43:09;19.20;99.90
6843;DHT22;3460;52.028;8.916;2023-07-31T14:45:38;19.20;99.90
6843;DHT22;3460;52.028;8.916;2023-07-31T14:48:04;19.10;99.90
6843;DHT22;3460;52.028;8.916;2023-07-31T14:50:31;19.10;99.90
6843;DHT22;3460;52.028;8.916;2023-07-31T14:52:58;19.10;99.90
6843;DHT22;3460;52.028;8.916;2023-07-31T14:55:25;19.10;99.90
6843;DHT22;3460;52.028;8.916;2023-07-31T14:57:52;19.10;99.90
6843;DHT22;3460;52.028;8.916;2023-07-31T15:00:19;19.00;99.90
6843;DHT22;3460;52.028;8.916;2023-07-31T15:02:48;19.00;99.90
6843;DHT22;3460;52.028;8.916;2023-07-31T15:05:14;19.00;99.90
6843;DHT22;3460;52.028;8.916;2023-07-31T15:07:41;18.90;99.90
6843;DHT22;3460;52.028;8.916;2023-07-31T15:10:08;18.90;99.90
6843;DHT22;3460;52.028;8.916;2023-07-31T15:12:34;18.90;99.90
6843;DHT22;3460;52.028;8.916;2023-07-31T15:15:03;18.90;99.90
6843;DHT22;3460;52.028;8.916;2023-07-31T15:17:30;18.80;99.90
6843;DHT22;3460;52.028;8.916;2023-07-31T15:19:58;18.80;99.90
6843;DHT22;3460;52.028;8.916;2023-07-31T15:22:26;18.70;99.90
6843;DHT22;3460;52.028;8.916;2023-07-31T15:24:52;18.80;99.90
6843;DHT22;3460;52.028;8.916;2023-07-31T15:27:19;18.80;99.90
6843;DHT22;3460;52.028;8.916;2023-07-31T15:29:46;18.80;99.90
6843;DHT22;3460;52.028;8.916;2023-07-31T15:32:13;18.80;99.90
6843;DHT22;3460;52.028;8.916;2023-07-31T15:34:40;18.80;99.90
6843;DHT22;3460;52.028;8.916;2023-07-31T15:37:08;18.90;99.90
6843;DHT22;3460;52.028;8.916;2023-07-31T15:39:34;18.80;99.90
6843;DHT22;3460;52.028;8.916;2023-07-31T15:42:01;18.90;99.90
6843;DHT22;3460;52.028;8.916;2023-07-31T15:44:28;18.90;99.90
6843;DHT22;3460;52.028;8.916;2023-07-31T15:46:55;18.90;99.90
6843;DHT22;3460;52.028;8.916;2023-07-31T15:49:22;18.80;99.90
6843;DHT22;3460;52.028;8.916;2023-07-31T15:51:48;18.80;99.90
6843;DHT22;3460;52.028;8.916;2023-07-31T15:54:17;18.80;99.90
6843;DHT22;3460;52.028;8.916;2023-07-31T15:56:44;18.70;99.90
6843;DHT22;3460;52.028;8.916;2023-07-31T15:59:11;18.70;99.90
6843;DHT22;3460;52.028;8.916;2023-07-31T16:01:38;18.60;99.90
6843;DHT22;3460;52.028;8.916;2023-07-31T16:04:05;18.60;99.90